Millboro, North Carolina
Current Conditions -  °F | °C
As of 4:55 PM on Monday 24 Nov 2014 (Local Time) from K5W8 Reporting Station
Broken Clouds Broken Clouds  
Wind Chill: 68°   Ceiling: 11000
Heat Index: 68°   Visibility: 10mi
Dew Point: 63°   Wind: 12mph
Humidity: 83%   Direction: 180°S
Pressure: 29.79"   Gusts: 17mph
Location:  35.8068°N, 79.7101°W
Report Text: K5W8 242155Z AUTO 18010G15KT 10SM BKN110 20/17 A2979 RMK AO2 T02010172
Loading
Personal Weather Stations






























Interactive Weather Map New forecast layout! Learn more

10-Day Weather Forecast

Advertisements
Track Severe Weather on mobile